Stovall, Georgia
Current Conditions -  °F | °C
As of 1:15 AM on Sunday 21 Dec 2014 (Local Time) from KLGC Reporting Station
Overcast Overcast  
Wind Chill: 53°   Ceiling: 800
Heat Index: 53°   Visibility: 7mi
Dew Point: 50°   Wind: 0mph
Humidity: 92%   Direction: NA
Pressure: 30.17"   Gusts: NA
Location:  33.0276°N, 84.7612°W
Report Text: KLGC 210615Z AUTO 00000KT 7SM OVC008 12/10 A3017 RMK AO2 T01150102
Loading
Personal Weather Stations






























Interactive Weather Map New forecast layout! Learn more

10-Day Weather Forecast

Advertisements
Track Severe Weather on mobile